Terminal Aerodrome Forecast
Issued by NWS

Home | Current Version | Previous Version | Text Only | Print | Product List | Glossary On
Versions: 1 2 3 4 5 6 7 8 9 10 11 12 13 14 15 16 17 18
000
FTUS41 KBTV 280531
TAFRUT
TAF
KRUT 280531Z 2806/2906 13008KT P6SM OVC015
     FM280900 13007KT P6SM OVC015
     FM281300 14006KT P6SM OVC025
     FM281600 14005KT P6SM VCSH OVC040
     FM282300 05004KT 4SM -SHRA BR OVC008
     FM290000 03004KT 4SM BR VCSH OVC008=

USA.gov is the U.S. government's official web portal to all federal, state and local government web resources and services.